createdAt,value
2019-01-09T00:00:24.260Z,1.47
2019-01-09T00:02:53.218Z,1.33
2019-01-09T00:05:28.322Z,1.60
2019-01-09T00:07:52.857Z,1.53
2019-01-09T00:10:21.552Z,1.67
2019-01-09T00:12:50.119Z,1.83
2019-01-09T00:15:18.898Z,1.03
2019-01-09T00:17:47.469Z,1.40
2019-01-09T00:20:16.437Z,1.70
2019-01-09T00:22:45.132Z,1.30
2019-01-09T00:25:13.953Z,1.80
2019-01-09T00:27:42.646Z,1.70
2019-01-09T00:30:11.346Z,1.63
2019-01-09T00:32:40.299Z,1.60
2019-01-09T00:35:08.990Z,1.80
2019-01-09T00:37:38.294Z,1.70
2019-01-09T00:40:08.702Z,1.53
2019-01-09T00:42:37.523Z,1.03
2019-01-09T00:45:08.620Z,1.03
2019-01-09T00:47:37.293Z,1.57
2019-01-09T00:50:09.250Z,0.90
2019-01-09T00:52:38.400Z,1.70
2019-01-09T00:55:09.377Z,1.77
2019-01-09T00:57:38.300Z,1.40
2019-01-09T01:00:12.720Z,1.60
2019-01-09T01:03:12.352Z,1.47
2019-01-09T01:06:17.087Z,1.40
2019-01-09T01:09:11.364Z,1.67
2019-01-09T01:12:09.038Z,1.80
2019-01-09T01:14:55.895Z,0.90
2019-01-09T01:17:48.670Z,1.20
2019-01-09T01:20:32.061Z,1.23
2019-01-09T01:23:15.906Z,1.50
2019-01-09T01:25:47.542Z,1.13
2019-01-09T01:28:19.552Z,1.00
2019-01-09T01:31:09.390Z,1.23
2019-01-09T01:33:46.642Z,0.80
2019-01-09T01:36:35.066Z,1.80
2019-01-09T01:39:15.440Z,1.00
2019-01-09T01:42:03.766Z,1.73
2019-01-09T01:44:37.985Z,1.20
2019-01-09T01:47:42.062Z,1.93
2019-01-09T01:50:30.260Z,1.20
2019-01-09T01:53:07.758Z,1.23
2019-01-09T01:55:54.500Z,1.13
2019-01-09T01:58:29.012Z,1.03
2019-01-09T02:01:03.420Z,1.33
2019-01-09T02:03:39.757Z,1.30
2019-01-09T02:06:27.780Z,1.00
2019-01-09T02:09:08.404Z,1.30
2019-01-09T02:11:40.052Z,0.87
2019-01-09T02:14:30.344Z,1.00
2019-01-09T02:17:08.085Z,0.80
2019-01-09T02:19:45.963Z,0.83
2019-01-09T02:22:35.645Z,1.03
2019-01-09T02:25:10.283Z,0.83
2019-01-09T02:27:51.142Z,1.10
2019-01-09T02:30:28.714Z,0.67
2019-01-09T02:32:57.292Z,0.70
2019-01-09T02:35:27.403Z,0.80
2019-01-09T02:37:55.954Z,0.80
2019-01-09T02:40:24.632Z,0.70
2019-01-09T02:42:53.191Z,0.70
2019-01-09T02:45:21.812Z,0.80
2019-01-09T02:47:50.520Z,0.80
2019-01-09T02:50:19.372Z,0.70
2019-01-09T02:52:48.095Z,0.90
2019-01-09T02:55:16.647Z,0.63
2019-01-09T02:57:45.588Z,0.90
2019-01-09T03:00:14.210Z,0.77
2019-01-09T03:02:43.165Z,0.70
2019-01-09T03:05:11.962Z,0.80
2019-01-09T03:07:40.531Z,0.93
2019-01-09T03:10:09.587Z,0.87
2019-01-09T03:12:38.144Z,0.80
2019-01-09T03:15:07.625Z,0.90
2019-01-09T03:17:36.246Z,1.00
2019-01-09T03:20:05.878Z,0.77
2019-01-09T03:22:34.456Z,0.60
2019-01-09T03:25:03.222Z,0.90
2019-01-09T03:27:31.788Z,0.80
2019-01-09T03:30:00.767Z,0.90
2019-01-09T03:32:29.338Z,0.93
2019-01-09T03:34:58.141Z,0.90
2019-01-09T03:37:26.696Z,1.00
2019-01-09T03:39:55.409Z,0.93
2019-01-09T03:42:23.990Z,1.30
2019-01-09T03:44:52.668Z,1.50
2019-01-09T03:47:21.307Z,1.40
2019-01-09T03:49:50.674Z,1.43
2019-01-09T03:52:19.217Z,0.73
2019-01-09T03:54:48.035Z,1.47
2019-01-09T03:57:16.733Z,0.90
2019-01-09T03:59:45.301Z,0.87
2019-01-09T04:02:14.029Z,1.00
2019-01-09T04:04:42.597Z,1.10
2019-01-09T04:07:11.480Z,1.17
2019-01-09T04:09:40.031Z,1.30
2019-01-09T04:12:08.728Z,1.00
2019-01-09T04:14:37.282Z,1.43
2019-01-09T04:17:05.843Z,1.07
2019-01-09T04:19:34.557Z,1.57
2019-01-09T04:22:03.115Z,1.00
2019-01-09T04:24:32.054Z,1.73
2019-01-09T04:27:00.710Z,1.40
2019-01-09T04:29:29.276Z,1.00
2019-01-09T04:31:58.321Z,1.00
2019-01-09T04:34:26.874Z,1.23
2019-01-09T04:36:55.559Z,1.10
2019-01-09T04:39:24.107Z,1.00
2019-01-09T04:41:52.853Z,1.60
2019-01-09T04:44:21.672Z,1.27
2019-01-09T04:46:50.355Z,1.40
2019-01-09T04:49:18.989Z,1.50
2019-01-09T04:51:48.725Z,1.20
2019-01-09T04:54:17.283Z,1.60
2019-01-09T04:56:45.954Z,1.73
2019-01-09T04:59:14.507Z,1.20
2019-01-09T05:01:43.199Z,0.83
2019-01-09T05:04:11.825Z,1.00
2019-01-09T05:06:40.529Z,0.70
2019-01-09T05:09:09.121Z,1.10
2019-01-09T05:11:38.109Z,1.87
2019-01-09T05:14:06.673Z,0.90
2019-01-09T05:16:35.393Z,1.33
2019-01-09T05:19:04.358Z,0.90
2019-01-09T05:21:32.934Z,1.03
2019-01-09T05:24:01.745Z,0.83
2019-01-09T05:26:30.314Z,1.00
2019-01-09T05:28:58.869Z,1.30
2019-01-09T05:31:27.798Z,0.90
2019-01-09T05:33:56.372Z,1.23
2019-01-09T05:36:26.606Z,1.10
2019-01-09T05:38:55.191Z,1.27
2019-01-09T05:41:24.190Z,1.23
2019-01-09T05:43:52.759Z,1.87
2019-01-09T05:46:21.557Z,1.63
2019-01-09T05:48:50.115Z,1.47
2019-01-09T05:51:18.664Z,0.80
2019-01-09T05:53:47.603Z,1.20
2019-01-09T05:56:16.243Z,1.20
2019-01-09T05:58:44.979Z,1.00
2019-01-09T06:01:13.911Z,1.30
2019-01-09T06:03:42.760Z,1.27
2019-01-09T06:06:11.338Z,0.70
2019-01-09T06:08:40.038Z,1.33
2019-01-09T06:11:08.613Z,1.40
2019-01-09T06:13:37.719Z,0.80
2019-01-09T06:16:06.274Z,1.83
2019-01-09T06:18:35.099Z,1.00
2019-01-09T06:21:04.049Z,1.07
2019-01-09T06:23:32.819Z,1.30
2019-01-09T06:26:01.421Z,1.50
2019-01-09T06:28:30.435Z,0.97
2019-01-09T06:30:58.998Z,1.00
2019-01-09T06:33:27.811Z,1.00
2019-01-09T06:35:56.367Z,1.60
2019-01-09T06:38:25.191Z,0.87
2019-01-09T06:40:53.747Z,1.70
2019-01-09T06:43:22.555Z,0.90
2019-01-09T06:45:51.098Z,1.50
2019-01-09T06:48:20.131Z,1.60
2019-01-09T06:50:48.683Z,1.60
2019-01-09T06:53:17.510Z,1.40
2019-01-09T06:55:46.098Z,1.07
2019-01-09T06:58:15.485Z,1.30
2019-01-09T07:00:44.041Z,1.00
2019-01-09T07:03:12.708Z,1.40
2019-01-09T07:05:41.343Z,1.13
2019-01-09T07:08:10.242Z,1.40
2019-01-09T07:10:39.370Z,0.80
2019-01-09T07:13:08.223Z,1.30
2019-01-09T07:15:36.787Z,1.37
2019-01-09T07:18:05.589Z,1.17
2019-01-09T07:20:34.153Z,1.20
2019-01-09T07:23:02.965Z,1.50
2019-01-09T07:25:31.524Z,1.67
2019-01-09T07:28:00.530Z,0.97
2019-01-09T07:30:29.097Z,0.70
2019-01-09T07:32:57.910Z,1.43
2019-01-09T07:35:26.465Z,1.40
2019-01-09T07:37:55.171Z,0.80
2019-01-09T07:40:23.739Z,1.00
2019-01-09T07:42:52.466Z,1.37
2019-01-09T07:45:21.049Z,0.93
2019-01-09T07:47:50.135Z,1.10
2019-01-09T07:50:18.709Z,0.90
2019-01-09T07:52:47.821Z,1.30
2019-01-09T07:55:16.459Z,1.07
2019-01-09T07:57:45.180Z,1.00
2019-01-09T08:00:13.815Z,1.40
2019-01-09T08:02:43.164Z,1.13
2019-01-09T08:05:11.717Z,1.43
2019-01-09T08:07:40.741Z,1.40
2019-01-09T08:10:10.535Z,1.77
2019-01-09T08:12:39.353Z,1.07
2019-01-09T08:15:08.268Z,1.33
2019-01-09T08:17:36.995Z,1.60
2019-01-09T08:20:07.245Z,1.53
2019-01-09T08:22:35.802Z,1.00
2019-01-09T08:25:05.845Z,1.33
2019-01-09T08:27:34.412Z,1.37
2019-01-09T08:30:06.316Z,1.30
2019-01-09T08:32:34.885Z,1.27
2019-01-09T08:35:03.629Z,1.80
2019-01-09T08:37:32.198Z,1.17
2019-01-09T08:40:01.025Z,1.20
2019-01-09T08:42:29.594Z,1.20
2019-01-09T08:44:58.286Z,1.20
2019-01-09T08:47:26.848Z,1.70
2019-01-09T08:49:55.563Z,1.83
2019-01-09T08:52:24.833Z,1.00
2019-01-09T08:54:53.879Z,1.07
2019-01-09T08:57:22.441Z,0.90
2019-01-09T08:59:51.329Z,0.83
2019-01-09T09:02:19.889Z,1.30
2019-01-09T09:04:48.710Z,1.30
2019-01-09T09:07:18.817Z,1.10
2019-01-09T09:09:47.722Z,1.30
2019-01-09T09:12:16.435Z,2.23
2019-01-09T09:14:45.699Z,2.17
2019-01-09T09:17:14.257Z,1.33
2019-01-09T09:19:43.075Z,1.37
2019-01-09T09:22:11.629Z,1.90
2019-01-09T09:24:40.449Z,0.73
2019-01-09T09:27:08.995Z,1.37
2019-01-09T09:29:38.027Z,0.90
2019-01-09T09:32:06.713Z,1.13
2019-01-09T09:34:35.815Z,1.40
2019-01-09T09:37:04.430Z,1.43
2019-01-09T09:39:33.371Z,1.63
2019-01-09T09:42:01.937Z,1.47
2019-01-09T09:44:30.752Z,1.63
2019-01-09T09:46:59.722Z,1.43
2019-01-09T09:49:28.703Z,1.30
2019-01-09T09:51:57.262Z,1.20
2019-01-09T09:54:25.860Z,1.23
2019-01-09T09:56:54.627Z,1.43
2019-01-09T09:59:23.390Z,1.07
2019-01-09T10:01:51.905Z,0.90
2019-01-09T10:04:20.857Z,1.57
2019-01-09T10:06:49.953Z,0.90
2019-01-09T10:09:18.523Z,1.30
2019-01-09T10:11:47.234Z,1.00
2019-01-09T10:14:15.789Z,1.10
2019-01-09T10:16:44.539Z,1.83
2019-01-09T10:19:13.205Z,0.80
2019-01-09T10:21:41.854Z,1.10
2019-01-09T10:24:10.397Z,0.90
2019-01-09T10:26:39.444Z,1.40
2019-01-09T10:29:08.090Z,0.90
2019-01-09T10:31:37.017Z,1.10
2019-01-09T10:34:05.591Z,1.27
2019-01-09T10:36:34.287Z,0.90
2019-01-09T10:39:02.849Z,0.80
2019-01-09T10:41:31.624Z,0.80
2019-01-09T10:44:00.191Z,1.10
2019-01-09T10:46:29.530Z,1.10
2019-01-09T10:48:58.104Z,1.20
2019-01-09T10:51:26.884Z,0.80
2019-01-09T10:53:55.443Z,1.00
2019-01-09T10:56:24.116Z,1.00
2019-01-09T10:58:52.757Z,1.13
2019-01-09T11:01:21.448Z,1.13
2019-01-09T11:03:50.001Z,1.00
2019-01-09T11:06:21.884Z,1.00
2019-01-09T11:08:50.439Z,1.40
2019-01-09T11:11:19.136Z,1.73
2019-01-09T11:13:47.707Z,1.43
2019-01-09T11:16:16.423Z,0.73
2019-01-09T11:18:44.985Z,1.20
2019-01-09T11:21:13.999Z,1.30
2019-01-09T11:23:42.563Z,0.60
2019-01-09T11:26:11.583Z,1.33
2019-01-09T11:28:40.215Z,0.80
2019-01-09T11:31:08.910Z,1.07
2019-01-09T11:33:37.469Z,1.20
2019-01-09T11:36:06.173Z,1.50
2019-01-09T11:38:34.859Z,1.60
2019-01-09T11:41:03.492Z,1.23
2019-01-09T11:43:32.379Z,1.40
2019-01-09T11:46:01.620Z,1.33
2019-01-09T11:48:30.184Z,1.10
2019-01-09T11:50:59.038Z,0.97
2019-01-09T11:53:27.606Z,0.80
2019-01-09T11:55:56.429Z,1.00
2019-01-09T11:58:27.896Z,1.07
2019-01-09T12:00:56.860Z,1.27
2019-01-09T12:03:25.956Z,1.50
2019-01-09T12:05:54.650Z,0.87
2019-01-09T12:08:23.218Z,1.27
2019-01-09T12:10:54.648Z,0.87
2019-01-09T12:13:23.219Z,0.93
2019-01-09T12:15:52.050Z,0.90
2019-01-09T12:18:20.608Z,0.70
2019-01-09T12:20:49.641Z,1.00
2019-01-09T12:23:18.190Z,1.27
2019-01-09T12:25:47.001Z,1.10
2019-01-09T12:28:34.896Z,1.10
2019-01-09T12:31:04.648Z,0.90
2019-01-09T12:33:33.322Z,0.90
2019-01-09T12:36:02.435Z,0.97
2019-01-09T12:38:30.979Z,1.00
2019-01-09T12:40:59.653Z,0.97
2019-01-09T12:43:28.279Z,0.57
2019-01-09T12:45:57.317Z,0.97
2019-01-09T12:48:25.872Z,0.97
2019-01-09T12:50:54.563Z,1.10
2019-01-09T12:53:23.125Z,1.40
2019-01-09T12:55:52.118Z,1.40
2019-01-09T12:58:20.676Z,1.10
2019-01-09T13:00:49.359Z,0.87
2019-01-09T13:03:18.044Z,1.90
2019-01-09T13:05:46.825Z,1.30
2019-01-09T13:08:15.459Z,1.10
2019-01-09T13:10:45.065Z,1.57
2019-01-09T13:13:13.873Z,1.20
2019-01-09T13:15:43.175Z,1.10
2019-01-09T13:18:11.727Z,1.27
2019-01-09T13:20:40.410Z,1.50
2019-01-09T13:23:08.978Z,1.33
2019-01-09T13:25:37.787Z,0.90
2019-01-09T13:28:06.535Z,1.13
2019-01-09T13:30:35.082Z,1.30
2019-01-09T13:33:04.043Z,1.37
2019-01-09T13:35:32.728Z,1.40
2019-01-09T13:38:01.856Z,1.17
2019-01-09T13:40:30.778Z,1.30
2019-01-09T13:42:59.333Z,1.60
2019-01-09T13:45:28.091Z,1.37
2019-01-09T13:47:57.668Z,0.87
2019-01-09T13:50:26.482Z,1.10
2019-01-09T13:52:55.048Z,1.30
2019-01-09T13:55:23.862Z,1.90
2019-01-09T13:57:52.821Z,1.67
2019-01-09T14:00:22.560Z,1.13
2019-01-09T14:02:51.536Z,1.40
2019-01-09T14:05:20.442Z,1.50
2019-01-09T14:07:49.632Z,1.77
2019-01-09T14:10:21.222Z,1.17
2019-01-09T14:12:50.282Z,1.70
2019-01-09T14:15:20.928Z,2.20
2019-01-09T14:17:50.937Z,3.30
2019-01-09T14:20:20.427Z,1.27
2019-01-09T14:22:49.002Z,1.80
2019-01-09T14:25:18.325Z,1.80
2019-01-09T14:27:47.116Z,3.47
2019-01-09T14:30:23.900Z,4.20
2019-01-09T14:32:52.457Z,3.73
2019-01-09T14:35:21.352Z,1.43
2019-01-09T14:37:50.364Z,2.87
2019-01-09T14:40:20.282Z,1.63
2019-01-09T14:42:49.166Z,2.40
2019-01-09T14:45:18.566Z,1.93
2019-01-09T14:47:47.553Z,1.60
2019-01-09T14:50:24.209Z,1.67
2019-01-09T14:52:53.327Z,1.93
2019-01-09T14:55:22.424Z,1.70
2019-01-09T14:57:51.524Z,1.60
2019-01-09T15:00:27.545Z,1.87
2019-01-09T15:02:56.713Z,2.30
2019-01-09T15:05:25.561Z,1.67
2019-01-09T15:07:54.399Z,1.50
2019-01-09T15:10:25.961Z,1.70
2019-01-09T15:12:55.616Z,1.60
2019-01-09T15:15:24.249Z,1.40
2019-01-09T15:17:53.098Z,1.70
2019-01-09T15:20:22.319Z,1.27
2019-01-09T15:22:51.710Z,1.97
2019-01-09T15:25:20.369Z,2.83
2019-01-09T15:27:49.677Z,1.63
2019-01-09T15:30:24.142Z,1.67
2019-01-09T15:32:53.189Z,1.80
2019-01-09T15:35:21.850Z,1.37
2019-01-09T15:37:51.001Z,2.20
2019-01-09T15:40:27.990Z,1.87
2019-01-09T15:42:56.945Z,1.70
2019-01-09T15:45:25.958Z,1.60
2019-01-09T15:47:54.730Z,1.30
2019-01-09T15:50:25.633Z,1.40
2019-01-09T15:52:54.962Z,1.83
2019-01-09T15:55:23.888Z,1.77
2019-01-09T15:57:54.520Z,2.80
2019-01-09T16:00:34.730Z,2.17
2019-01-09T16:03:04.043Z,2.50
2019-01-09T16:05:33.064Z,1.43
2019-01-09T16:08:02.041Z,2.40
2019-01-09T16:10:30.668Z,3.60
2019-01-09T16:12:59.564Z,4.03
2019-01-09T16:15:28.277Z,2.60
2019-01-09T16:17:57.187Z,3.33
2019-01-09T16:20:25.767Z,2.40
2019-01-09T16:22:54.567Z,3.43
2019-01-09T16:25:23.194Z,1.70
2019-01-09T16:27:52.274Z,1.70
2019-01-09T16:30:34.034Z,1.87
2019-01-09T16:32:57.172Z,2.37
2019-01-09T16:35:26.002Z,2.47
2019-01-09T16:37:54.760Z,1.73
2019-01-09T16:40:23.782Z,1.83
2019-01-09T16:42:52.746Z,2.60
2019-01-09T16:45:21.397Z,1.67
2019-01-09T16:47:50.326Z,1.80
2019-01-09T16:50:21.859Z,1.70
2019-01-09T16:52:50.790Z,1.70
2019-01-09T16:55:19.655Z,1.87
2019-01-09T16:57:48.226Z,1.60
2019-01-09T17:00:29.435Z,2.07
2019-01-09T17:02:58.000Z,1.77
2019-01-09T17:05:26.924Z,2.00
2019-01-09T17:07:55.934Z,1.53
2019-01-09T17:10:32.391Z,1.93
2019-01-09T17:12:55.568Z,1.53
2019-01-09T17:15:24.711Z,1.70
2019-01-09T17:17:53.400Z,4.13
2019-01-09T17:20:27.414Z,2.00
2019-01-09T17:22:56.492Z,4.00
2019-01-09T17:25:25.606Z,5.73
2019-01-09T17:27:54.224Z,3.60
2019-01-09T17:30:28.356Z,2.30
2019-01-09T17:32:56.980Z,2.30
2019-01-09T17:35:26.066Z,1.67
2019-01-09T17:37:54.989Z,1.50
2019-01-09T17:40:24.893Z,2.10
2019-01-09T17:42:54.519Z,2.20
2019-01-09T17:45:23.284Z,2.13
2019-01-09T17:47:51.925Z,2.03
2019-01-09T17:50:28.656Z,2.03
2019-01-09T17:52:57.563Z,1.70
2019-01-09T17:55:26.619Z,1.80
2019-01-09T17:57:55.317Z,1.67
2019-01-09T18:00:26.962Z,1.90
2019-01-09T18:02:55.717Z,3.90
2019-01-09T18:05:24.944Z,1.93
2019-01-09T18:07:53.564Z,1.83
2019-01-09T18:10:24.419Z,1.57
2019-01-09T18:12:54.897Z,2.37
2019-01-09T18:15:24.600Z,1.80
2019-01-09T18:17:53.460Z,2.27
2019-01-09T18:20:23.409Z,1.33
2019-01-09T18:22:52.319Z,2.43
2019-01-09T18:25:23.687Z,1.53
2019-01-09T18:27:52.546Z,2.43
2019-01-09T18:30:30.451Z,2.57
2019-01-09T18:33:11.016Z,2.13
2019-01-09T18:35:46.035Z,2.53
2019-01-09T18:38:26.119Z,2.17
2019-01-09T18:41:05.535Z,1.50
2019-01-09T18:43:38.432Z,2.57
2019-01-09T18:46:38.751Z,2.27
2019-01-09T18:49:16.507Z,2.23
2019-01-09T18:52:06.620Z,1.73
2019-01-09T18:54:35.182Z,2.07
2019-01-09T18:57:04.211Z,2.20
2019-01-09T18:59:32.910Z,2.27
2019-01-09T19:02:01.993Z,1.70
2019-01-09T19:04:30.547Z,1.67
2019-01-09T19:06:59.400Z,2.43
2019-01-09T19:09:27.934Z,2.63
2019-01-09T19:11:56.707Z,1.93
2019-01-09T19:14:25.663Z,0.87
2019-01-09T19:16:54.713Z,1.90
2019-01-09T19:19:23.817Z,1.97
2019-01-09T19:21:52.371Z,2.00
2019-01-09T19:24:21.193Z,1.70
2019-01-09T19:26:50.061Z,2.57
2019-01-09T19:29:18.627Z,1.93
2019-01-09T19:31:47.438Z,2.10
2019-01-09T19:34:16.947Z,2.17
2019-01-09T19:36:45.848Z,2.80
2019-01-09T19:39:14.470Z,2.20
2019-01-09T19:41:43.420Z,2.57
2019-01-09T19:44:12.058Z,1.73
2019-01-09T19:46:41.055Z,3.03
2019-01-09T19:49:09.687Z,2.60
2019-01-09T19:51:39.408Z,2.77
2019-01-09T19:54:08.035Z,2.83
2019-01-09T19:56:36.730Z,3.03
2019-01-09T19:59:05.359Z,3.40
2019-01-09T20:01:36.509Z,3.27
2019-01-09T20:04:05.079Z,3.67
2019-01-09T20:06:33.716Z,2.43
2019-01-09T20:09:02.721Z,3.60
2019-01-09T20:11:33.012Z,3.30
2019-01-09T20:14:01.866Z,3.90
2019-01-09T20:16:30.561Z,4.10
2019-01-09T20:18:59.383Z,3.13
2019-01-09T20:21:27.993Z,3.00
2019-01-09T20:23:57.064Z,4.10
2019-01-09T20:26:25.914Z,3.30
2019-01-09T20:28:54.784Z,3.87
2019-01-09T20:31:23.366Z,4.37
2019-01-09T20:33:52.590Z,2.70
2019-01-09T20:36:21.825Z,4.47
2019-01-09T20:38:50.653Z,2.83
2019-01-09T20:41:21.855Z,3.97
2019-01-09T20:43:50.646Z,5.70
2019-01-09T20:46:19.294Z,2.70
2019-01-09T20:48:48.840Z,4.80
2019-01-09T20:51:17.895Z,5.60
2019-01-09T20:53:47.025Z,4.37
2019-01-09T20:56:15.899Z,5.17
2019-01-09T20:58:44.479Z,6.10
2019-01-09T21:01:13.249Z,6.80
2019-01-09T21:03:42.371Z,6.70
2019-01-09T21:06:12.957Z,7.80
2019-01-09T21:08:41.598Z,7.27
2019-01-09T21:11:10.407Z,6.93
2019-01-09T21:13:39.772Z,7.00
2019-01-09T21:16:08.371Z,4.87
2019-01-09T21:18:37.071Z,6.33
2019-01-09T21:21:06.250Z,6.20
2019-01-09T21:23:35.305Z,8.43
2019-01-09T21:26:04.217Z,7.97
2019-01-09T21:28:33.092Z,9.20
2019-01-09T21:31:01.989Z,10.60
2019-01-09T21:33:30.866Z,7.70
2019-01-09T21:35:59.494Z,9.33
2019-01-09T21:38:28.463Z,10.10
2019-01-09T21:40:57.184Z,14.60
2019-01-09T21:43:25.823Z,12.40
2019-01-09T21:45:54.607Z,9.10
2019-01-09T21:48:23.167Z,7.50
2019-01-09T21:50:52.754Z,10.73
2019-01-09T21:53:21.503Z,10.33
2019-01-09T21:55:50.465Z,11.07
2019-01-09T21:58:19.313Z,9.10
2019-01-09T22:00:48.049Z,11.93
2019-01-09T22:03:16.725Z,10.43
2019-01-09T22:05:45.833Z,7.63
2019-01-09T22:08:14.545Z,10.33
2019-01-09T22:10:43.617Z,8.23
2019-01-09T22:13:12.611Z,11.03
2019-01-09T22:15:41.567Z,9.77
2019-01-09T22:18:10.187Z,10.33
2019-01-09T22:20:40.404Z,9.20
2019-01-09T22:23:08.973Z,11.47
2019-01-09T22:25:37.779Z,9.37
2019-01-09T22:28:06.355Z,9.87
2019-01-09T22:30:35.225Z,9.20
2019-01-09T22:33:03.861Z,9.50
2019-01-09T22:35:41.113Z,9.87
2019-01-09T22:38:03.269Z,7.83
2019-01-09T22:40:32.148Z,9.20
2019-01-09T22:43:00.703Z,9.50
2019-01-09T22:45:29.719Z,8.80
2019-01-09T22:47:58.283Z,8.40
2019-01-09T22:50:26.993Z,9.40
2019-01-09T22:52:56.619Z,8.13
2019-01-09T22:55:25.255Z,8.43
2019-01-09T22:57:54.175Z,7.53
2019-01-09T23:00:35.168Z,8.33
2019-01-09T23:03:07.187Z,7.27
2019-01-09T23:05:36.444Z,6.43
2019-01-09T23:08:06.127Z,6.50
2019-01-09T23:10:34.765Z,6.17
2019-01-09T23:13:04.358Z,7.77
2019-01-09T23:15:33.068Z,7.87
2019-01-09T23:18:02.014Z,7.17
2019-01-09T23:20:30.926Z,4.70
2019-01-09T23:23:00.177Z,5.50
2019-01-09T23:25:28.839Z,4.90
2019-01-09T23:27:58.887Z,6.60
2019-01-09T23:30:27.587Z,4.10
2019-01-09T23:32:56.533Z,5.20
2019-01-09T23:35:25.103Z,6.50
2019-01-09T23:37:54.447Z,4.60
2019-01-09T23:40:23.152Z,5.53
2019-01-09T23:42:52.031Z,5.60
2019-01-09T23:45:20.834Z,5.40
2019-01-09T23:47:49.799Z,6.10
2019-01-09T23:50:18.444Z,6.80
2019-01-09T23:52:47.388Z,5.60
2019-01-09T23:55:16.032Z,4.63
2019-01-09T23:57:44.974Z,5.73
